sensor_id;sensor_type;location;lat;lon;timestamp;P1;durP1;ratioP1;P2;durP2;ratioP2
46721;SDS011;32455;43.430;23.136;2024-02-28T00:02:42;89.30;;;44.60;;
46721;SDS011;32455;43.430;23.136;2024-02-28T00:05:28;85.22;;;42.38;;
46721;SDS011;32455;43.430;23.136;2024-02-28T00:08:13;77.70;;;40.03;;
46721;SDS011;32455;43.430;23.136;2024-02-28T00:10:59;79.85;;;41.28;;
46721;SDS011;32455;43.430;23.136;2024-02-28T00:13:44;74.60;;;38.63;;
46721;SDS011;32455;43.430;23.136;2024-02-28T00:16:29;77.32;;;39.15;;
46721;SDS011;32455;43.430;23.136;2024-02-28T00:19:15;71.10;;;38.08;;
46721;SDS011;32455;43.430;23.136;2024-02-28T00:22:02;70.97;;;38.35;;
46721;SDS011;32455;43.430;23.136;2024-02-28T00:24:47;81.80;;;42.72;;
46721;SDS011;32455;43.430;23.136;2024-02-28T00:27:33;76.40;;;40.03;;
46721;SDS011;32455;43.430;23.136;2024-02-28T00:30:19;73.90;;;38.78;;
46721;SDS011;32455;43.430;23.136;2024-02-28T00:33:04;76.63;;;39.72;;
46721;SDS011;32455;43.430;23.136;2024-02-28T00:35:50;79.20;;;41.50;;
46721;SDS011;32455;43.430;23.136;2024-02-28T00:38:35;83.18;;;42.15;;
46721;SDS011;32455;43.430;23.136;2024-02-28T00:41:21;80.65;;;40.63;;
46721;SDS011;32455;43.430;23.136;2024-02-28T00:44:07;91.40;;;46.15;;
46721;SDS011;32455;43.430;23.136;2024-02-28T00:46:52;85.07;;;44.78;;
46721;SDS011;32455;43.430;23.136;2024-02-28T00:49:37;80.15;;;42.58;;
46721;SDS011;32455;43.430;23.136;2024-02-28T00:52:23;86.22;;;44.28;;
46721;SDS011;32455;43.430;23.136;2024-02-28T00:55:09;87.22;;;44.40;;
46721;SDS011;32455;43.430;23.136;2024-02-28T00:57:55;85.53;;;42.72;;
46721;SDS011;32455;43.430;23.136;2024-02-28T01:00:40;78.00;;;41.70;;
46721;SDS011;32455;43.430;23.136;2024-02-28T01:03:24;86.60;;;42.45;;
46721;SDS011;32455;43.430;23.136;2024-02-28T01:06:10;85.97;;;44.00;;
46721;SDS011;32455;43.430;23.136;2024-02-28T01:08:56;72.30;;;38.88;;
46721;SDS011;32455;43.430;23.136;2024-02-28T01:11:41;73.03;;;41.03;;
46721;SDS011;32455;43.430;23.136;2024-02-28T01:14:27;90.10;;;44.42;;
46721;SDS011;32455;43.430;23.136;2024-02-28T01:17:12;84.60;;;43.60;;
46721;SDS011;32455;43.430;23.136;2024-02-28T01:19:58;86.68;;;45.63;;
46721;SDS011;32455;43.430;23.136;2024-02-28T01:22:43;76.28;;;42.20;;
46721;SDS011;32455;43.430;23.136;2024-02-28T01:25:28;85.85;;;42.95;;
46721;SDS011;32455;43.430;23.136;2024-02-28T01:28:15;84.25;;;41.67;;
46721;SDS011;32455;43.430;23.136;2024-02-28T01:31:00;76.97;;;41.70;;
46721;SDS011;32455;43.430;23.136;2024-02-28T01:33:46;83.15;;;42.30;;
46721;SDS011;32455;43.430;23.136;2024-02-28T01:36:31;84.63;;;43.38;;
46721;SDS011;32455;43.430;23.136;2024-02-28T01:39:16;73.35;;;39.83;;
46721;SDS011;32455;43.430;23.136;2024-02-28T01:42:02;73.40;;;39.83;;
46721;SDS011;32455;43.430;23.136;2024-02-28T01:44:48;71.15;;;39.10;;
46721;SDS011;32455;43.430;23.136;2024-02-28T01:47:33;78.82;;;42.50;;
46721;SDS011;32455;43.430;23.136;2024-02-28T01:50:19;80.80;;;41.70;;
46721;SDS011;32455;43.430;23.136;2024-02-28T01:53:05;76.80;;;39.38;;
46721;SDS011;32455;43.430;23.136;2024-02-28T01:55:54;91.20;;;42.65;;
46721;SDS011;32455;43.430;23.136;2024-02-28T01:58:39;73.55;;;39.20;;
46721;SDS011;32455;43.430;23.136;2024-02-28T02:01:26;80.63;;;42.75;;
46721;SDS011;32455;43.430;23.136;2024-02-28T02:04:11;83.20;;;41.10;;
46721;SDS011;32455;43.430;23.136;2024-02-28T02:06:56;78.15;;;41.70;;
46721;SDS011;32455;43.430;23.136;2024-02-28T02:09:44;85.22;;;42.60;;
46721;SDS011;32455;43.430;23.136;2024-02-28T02:12:29;85.03;;;41.15;;
46721;SDS011;32455;43.430;23.136;2024-02-28T02:15:18;80.50;;;42.97;;
46721;SDS011;32455;43.430;23.136;2024-02-28T02:18:03;85.25;;;44.10;;
46721;SDS011;32455;43.430;23.136;2024-02-28T02:20:53;85.63;;;43.03;;
46721;SDS011;32455;43.430;23.136;2024-02-28T02:23:44;91.78;;;41.13;;
46721;SDS011;32455;43.430;23.136;2024-02-28T02:26:29;85.82;;;43.30;;
46721;SDS011;32455;43.430;23.136;2024-02-28T02:29:14;86.15;;;43.13;;
46721;SDS011;32455;43.430;23.136;2024-02-28T02:31:59;90.15;;;45.70;;
46721;SDS011;32455;43.430;23.136;2024-02-28T02:34:45;80.20;;;43.28;;
46721;SDS011;32455;43.430;23.136;2024-02-28T02:37:30;80.63;;;44.10;;
46721;SDS011;32455;43.430;23.136;2024-02-28T02:40:15;81.55;;;41.53;;
46721;SDS011;32455;43.430;23.136;2024-02-28T02:43:01;74.63;;;41.45;;
46721;SDS011;32455;43.430;23.136;2024-02-28T02:45:46;76.60;;;41.42;;
46721;SDS011;32455;43.430;23.136;2024-02-28T02:48:31;75.88;;;39.75;;
46721;SDS011;32455;43.430;23.136;2024-02-28T02:51:18;79.55;;;41.65;;
46721;SDS011;32455;43.430;23.136;2024-02-28T02:54:04;83.93;;;43.22;;
46721;SDS011;32455;43.430;23.136;2024-02-28T02:56:48;78.10;;;41.45;;
46721;SDS011;32455;43.430;23.136;2024-02-28T02:59:33;86.07;;;43.75;;
46721;SDS011;32455;43.430;23.136;2024-02-28T03:02:18;81.55;;;41.65;;
46721;SDS011;32455;43.430;23.136;2024-02-28T03:05:04;87.55;;;43.55;;
46721;SDS011;32455;43.430;23.136;2024-02-28T03:07:50;77.25;;;40.95;;
46721;SDS011;32455;43.430;23.136;2024-02-28T03:10:35;81.03;;;40.35;;
46721;SDS011;32455;43.430;23.136;2024-02-28T03:13:20;78.97;;;40.90;;
46721;SDS011;32455;43.430;23.136;2024-02-28T03:16:06;78.53;;;40.88;;
46721;SDS011;32455;43.430;23.136;2024-02-28T03:18:51;81.30;;;39.85;;
46721;SDS011;32455;43.430;23.136;2024-02-28T03:21:37;81.60;;;41.35;;
46721;SDS011;32455;43.430;23.136;2024-02-28T03:24:22;72.28;;;37.85;;
46721;SDS011;32455;43.430;23.136;2024-02-28T03:27:07;78.55;;;38.97;;
46721;SDS011;32455;43.430;23.136;2024-02-28T03:29:53;81.13;;;41.60;;
46721;SDS011;32455;43.430;23.136;2024-02-28T03:32:38;85.13;;;41.65;;
46721;SDS011;32455;43.430;23.136;2024-02-28T03:35:23;87.65;;;42.40;;
46721;SDS011;32455;43.430;23.136;2024-02-28T03:38:09;79.78;;;41.20;;
46721;SDS011;32455;43.430;23.136;2024-02-28T03:40:54;70.55;;;39.15;;
46721;SDS011;32455;43.430;23.136;2024-02-28T03:43:40;78.63;;;39.30;;
46721;SDS011;32455;43.430;23.136;2024-02-28T03:46:25;72.05;;;39.13;;
46721;SDS011;32455;43.430;23.136;2024-02-28T03:49:10;79.35;;;40.00;;
46721;SDS011;32455;43.430;23.136;2024-02-28T03:51:55;83.75;;;40.28;;
46721;SDS011;32455;43.430;23.136;2024-02-28T03:54:44;73.57;;;39.35;;
46721;SDS011;32455;43.430;23.136;2024-02-28T03:57:29;74.05;;;39.00;;
46721;SDS011;32455;43.430;23.136;2024-02-28T04:00:15;71.38;;;39.92;;
46721;SDS011;32455;43.430;23.136;2024-02-28T04:03:00;75.68;;;39.88;;
46721;SDS011;32455;43.430;23.136;2024-02-28T04:05:45;83.65;;;40.83;;
46721;SDS011;32455;43.430;23.136;2024-02-28T04:08:31;75.78;;;40.03;;
46721;SDS011;32455;43.430;23.136;2024-02-28T04:11:16;102.63;;;44.97;;
46721;SDS011;32455;43.430;23.136;2024-02-28T04:14:01;95.55;;;45.75;;
46721;SDS011;32455;43.430;23.136;2024-02-28T04:16:46;101.65;;;45.10;;
46721;SDS011;32455;43.430;23.136;2024-02-28T04:19:35;99.82;;;43.75;;
46721;SDS011;32455;43.430;23.136;2024-02-28T04:22:24;95.40;;;44.08;;
46721;SDS011;32455;43.430;23.136;2024-02-28T04:25:09;98.95;;;42.95;;
46721;SDS011;32455;43.430;23.136;2024-02-28T04:27:55;83.80;;;40.45;;
46721;SDS011;32455;43.430;23.136;2024-02-28T04:30:42;77.00;;;39.60;;
46721;SDS011;32455;43.430;23.136;2024-02-28T04:33:27;91.57;;;41.60;;
46721;SDS011;32455;43.430;23.136;2024-02-28T04:36:12;86.88;;;42.97;;
46721;SDS011;32455;43.430;23.136;2024-02-28T04:38:58;87.88;;;41.47;;
46721;SDS011;32455;43.430;23.136;2024-02-28T04:41:42;92.38;;;42.50;;
46721;SDS011;32455;43.430;23.136;2024-02-28T04:44:28;84.72;;;41.42;;
46721;SDS011;32455;43.430;23.136;2024-02-28T04:47:13;93.70;;;42.78;;
46721;SDS011;32455;43.430;23.136;2024-02-28T04:49:59;81.95;;;41.38;;
46721;SDS011;32455;43.430;23.136;2024-02-28T04:52:44;96.05;;;43.60;;
46721;SDS011;32455;43.430;23.136;2024-02-28T04:55:29;97.43;;;44.50;;
46721;SDS011;32455;43.430;23.136;2024-02-28T04:58:15;94.60;;;43.75;;
46721;SDS011;32455;43.430;23.136;2024-02-28T05:01:00;93.38;;;43.60;;
46721;SDS011;32455;43.430;23.136;2024-02-28T05:03:45;90.85;;;43.15;;
46721;SDS011;32455;43.430;23.136;2024-02-28T05:06:31;96.10;;;42.85;;
46721;SDS011;32455;43.430;23.136;2024-02-28T05:09:16;98.38;;;43.30;;
46721;SDS011;32455;43.430;23.136;2024-02-28T05:12:01;74.65;;;39.13;;
46721;SDS011;32455;43.430;23.136;2024-02-28T05:14:47;83.00;;;39.33;;
46721;SDS011;32455;43.430;23.136;2024-02-28T05:17:33;84.40;;;41.05;;
46721;SDS011;32455;43.430;23.136;2024-02-28T05:20:18;89.72;;;42.17;;
46721;SDS011;32455;43.430;23.136;2024-02-28T05:23:04;94.20;;;44.17;;
46721;SDS011;32455;43.430;23.136;2024-02-28T05:25:49;91.03;;;42.63;;
46721;SDS011;32455;43.430;23.136;2024-02-28T05:28:34;91.93;;;40.80;;
46721;SDS011;32455;43.430;23.136;2024-02-28T05:31:24;77.95;;;40.35;;
46721;SDS011;32455;43.430;23.136;2024-02-28T05:34:10;91.50;;;40.70;;
46721;SDS011;32455;43.430;23.136;2024-02-28T05:36:56;75.88;;;39.53;;
46721;SDS011;32455;43.430;23.136;2024-02-28T05:39:42;84.90;;;41.30;;
46721;SDS011;32455;43.430;23.136;2024-02-28T05:42:27;91.72;;;41.88;;
46721;SDS011;32455;43.430;23.136;2024-02-28T05:45:13;98.18;;;41.90;;
46721;SDS011;32455;43.430;23.136;2024-02-28T05:47:58;132.10;;;44.28;;
46721;SDS011;32455;43.430;23.136;2024-02-28T05:50:44;88.80;;;40.80;;
46721;SDS011;32455;43.430;23.136;2024-02-28T05:53:29;101.28;;;42.00;;
46721;SDS011;32455;43.430;23.136;2024-02-28T05:56:20;89.10;;;41.65;;
46721;SDS011;32455;43.430;23.136;2024-02-28T05:59:07;95.72;;;42.17;;
46721;SDS011;32455;43.430;23.136;2024-02-28T06:01:53;108.00;;;44.70;;
46721;SDS011;32455;43.430;23.136;2024-02-28T06:04:38;100.28;;;45.35;;
46721;SDS011;32455;43.430;23.136;2024-02-28T06:07:23;103.72;;;46.55;;
46721;SDS011;32455;43.430;23.136;2024-02-28T06:10:09;108.13;;;47.65;;
46721;SDS011;32455;43.430;23.136;2024-02-28T06:12:55;88.47;;;44.75;;
46721;SDS011;32455;43.430;23.136;2024-02-28T06:15:41;93.05;;;45.22;;
46721;SDS011;32455;43.430;23.136;2024-02-28T06:18:27;98.93;;;41.35;;
46721;SDS011;32455;43.430;23.136;2024-02-28T06:21:13;82.47;;;39.35;;
46721;SDS011;32455;43.430;23.136;2024-02-28T06:23:59;84.25;;;40.38;;
46721;SDS011;32455;43.430;23.136;2024-02-28T06:26:43;81.22;;;37.00;;
46721;SDS011;32455;43.430;23.136;2024-02-28T06:29:28;86.20;;;41.55;;
46721;SDS011;32455;43.430;23.136;2024-02-28T06:32:14;79.57;;;38.15;;
46721;SDS011;32455;43.430;23.136;2024-02-28T06:34:59;83.47;;;39.63;;
46721;SDS011;32455;43.430;23.136;2024-02-28T06:37:44;83.95;;;40.45;;
46721;SDS011;32455;43.430;23.136;2024-02-28T06:40:34;83.57;;;39.50;;
46721;SDS011;32455;43.430;23.136;2024-02-28T06:43:19;79.30;;;39.20;;
46721;SDS011;32455;43.430;23.136;2024-02-28T06:46:05;78.18;;;37.35;;
46721;SDS011;32455;43.430;23.136;2024-02-28T06:48:50;82.75;;;39.70;;
46721;SDS011;32455;43.430;23.136;2024-02-28T06:51:35;72.40;;;38.42;;
46721;SDS011;32455;43.430;23.136;2024-02-28T06:54:21;79.20;;;40.33;;
46721;SDS011;32455;43.430;23.136;2024-02-28T06:57:06;74.80;;;37.95;;
46721;SDS011;32455;43.430;23.136;2024-02-28T06:59:51;73.95;;;41.08;;
46721;SDS011;32455;43.430;23.136;2024-02-28T07:02:37;85.40;;;41.97;;
46721;SDS011;32455;43.430;23.136;2024-02-28T07:05:22;98.72;;;39.85;;
46721;SDS011;32455;43.430;23.136;2024-02-28T07:08:09;89.80;;;41.55;;
46721;SDS011;32455;43.430;23.136;2024-02-28T07:10:56;87.40;;;43.20;;
46721;SDS011;32455;43.430;23.136;2024-02-28T07:13:42;88.85;;;43.45;;
46721;SDS011;32455;43.430;23.136;2024-02-28T07:16:28;88.45;;;42.38;;
46721;SDS011;32455;43.430;23.136;2024-02-28T07:19:14;93.80;;;42.22;;
46721;SDS011;32455;43.430;23.136;2024-02-28T07:21:59;94.10;;;41.55;;
46721;SDS011;32455;43.430;23.136;2024-02-28T07:24:45;92.45;;;42.70;;
46721;SDS011;32455;43.430;23.136;2024-02-28T07:27:30;84.25;;;39.85;;
46721;SDS011;32455;43.430;23.136;2024-02-28T07:30:15;85.10;;;40.25;;
46721;SDS011;32455;43.430;23.136;2024-02-28T07:33:01;82.75;;;38.67;;
46721;SDS011;32455;43.430;23.136;2024-02-28T07:35:48;82.03;;;39.85;;
46721;SDS011;32455;43.430;23.136;2024-02-28T07:38:34;86.05;;;37.55;;
46721;SDS011;32455;43.430;23.136;2024-02-28T07:41:19;80.35;;;37.35;;
46721;SDS011;32455;43.430;23.136;2024-02-28T07:44:05;82.05;;;37.05;;
46721;SDS011;32455;43.430;23.136;2024-02-28T07:46:51;93.65;;;41.13;;
46721;SDS011;32455;43.430;23.136;2024-02-28T07:49:36;76.40;;;39.22;;
46721;SDS011;32455;43.430;23.136;2024-02-28T07:52:22;80.80;;;38.08;;
46721;SDS011;32455;43.430;23.136;2024-02-28T07:55:07;72.18;;;39.33;;
46721;SDS011;32455;43.430;23.136;2024-02-28T07:57:53;71.60;;;36.78;;
46721;SDS011;32455;43.430;23.136;2024-02-28T08:00:38;82.25;;;39.85;;
46721;SDS011;32455;43.430;23.136;2024-02-28T08:03:23;89.72;;;38.83;;
46721;SDS011;32455;43.430;23.136;2024-02-28T08:06:08;81.70;;;43.08;;
46721;SDS011;32455;43.430;23.136;2024-02-28T08:08:55;74.70;;;38.00;;
46721;SDS011;32455;43.430;23.136;2024-02-28T08:11:40;80.80;;;39.92;;
46721;SDS011;32455;43.430;23.136;2024-02-28T08:14:26;84.18;;;44.22;;
46721;SDS011;32455;43.430;23.136;2024-02-28T08:17:12;69.82;;;36.42;;
46721;SDS011;32455;43.430;23.136;2024-02-28T08:19:58;68.40;;;35.72;;
46721;SDS011;32455;43.430;23.136;2024-02-28T08:22:43;71.05;;;36.92;;
46721;SDS011;32455;43.430;23.136;2024-02-28T08:25:28;62.22;;;35.35;;
46721;SDS011;32455;43.430;23.136;2024-02-28T08:28:14;65.15;;;37.38;;
46721;SDS011;32455;43.430;23.136;2024-02-28T08:30:59;62.42;;;35.53;;
46721;SDS011;32455;43.430;23.136;2024-02-28T08:33:45;64.50;;;35.83;;
46721;SDS011;32455;43.430;23.136;2024-02-28T08:36:30;68.10;;;36.03;;
46721;SDS011;32455;43.430;23.136;2024-02-28T08:39:15;62.42;;;35.15;;
46721;SDS011;32455;43.430;23.136;2024-02-28T08:42:00;68.65;;;35.85;;
46721;SDS011;32455;43.430;23.136;2024-02-28T08:44:45;56.33;;;33.28;;
46721;SDS011;32455;43.430;23.136;2024-02-28T08:47:32;60.08;;;32.38;;
46721;SDS011;32455;43.430;23.136;2024-02-28T08:50:18;64.57;;;33.83;;
46721;SDS011;32455;43.430;23.136;2024-02-28T08:53:04;54.58;;;29.48;;
46721;SDS011;32455;43.430;23.136;2024-02-28T08:55:49;54.85;;;29.83;;
46721;SDS011;32455;43.430;23.136;2024-02-28T08:58:34;47.78;;;30.30;;
46721;SDS011;32455;43.430;23.136;2024-02-28T09:01:20;44.58;;;26.00;;
46721;SDS011;32455;43.430;23.136;2024-02-28T09:04:06;49.47;;;27.17;;
46721;SDS011;32455;43.430;23.136;2024-02-28T09:06:51;46.10;;;25.80;;
46721;SDS011;32455;43.430;23.136;2024-02-28T09:09:41;42.28;;;25.45;;
46721;SDS011;32455;43.430;23.136;2024-02-28T09:12:28;46.95;;;26.33;;
46721;SDS011;32455;43.430;23.136;2024-02-28T09:15:13;44.20;;;24.73;;
46721;SDS011;32455;43.430;23.136;2024-02-28T09:17:58;44.60;;;26.95;;
46721;SDS011;32455;43.430;23.136;2024-02-28T09:20:45;41.20;;;25.48;;
46721;SDS011;32455;43.430;23.136;2024-02-28T09:23:30;44.80;;;26.00;;
46721;SDS011;32455;43.430;23.136;2024-02-28T09:26:16;41.90;;;24.50;;
46721;SDS011;32455;43.430;23.136;2024-02-28T09:29:01;46.15;;;26.25;;
46721;SDS011;32455;43.430;23.136;2024-02-28T09:31:46;43.30;;;25.50;;
46721;SDS011;32455;43.430;23.136;2024-02-28T09:34:31;44.28;;;24.92;;
46721;SDS011;32455;43.430;23.136;2024-02-28T09:37:17;39.78;;;24.23;;
46721;SDS011;32455;43.430;23.136;2024-02-28T09:40:01;41.67;;;25.70;;
46721;SDS011;32455;43.430;23.136;2024-02-28T09:42:52;42.22;;;25.25;;
46721;SDS011;32455;43.430;23.136;2024-02-28T09:45:38;43.53;;;26.75;;
46721;SDS011;32455;43.430;23.136;2024-02-28T09:48:24;44.67;;;24.75;;
46721;SDS011;32455;43.430;23.136;2024-02-28T09:51:12;39.33;;;25.75;;
46721;SDS011;32455;43.430;23.136;2024-02-28T09:53:58;39.78;;;25.25;;
46721;SDS011;32455;43.430;23.136;2024-02-28T09:56:47;38.50;;;24.65;;
46721;SDS011;32455;43.430;23.136;2024-02-28T09:59:35;41.20;;;23.10;;
46721;SDS011;32455;43.430;23.136;2024-02-28T10:02:21;42.90;;;24.33;;
46721;SDS011;32455;43.430;23.136;2024-02-28T10:05:09;34.95;;;24.05;;
46721;SDS011;32455;43.430;23.136;2024-02-28T10:07:55;40.13;;;25.38;;
46721;SDS011;32455;43.430;23.136;2024-02-28T10:10:49;41.78;;;25.75;;
46721;SDS011;32455;43.430;23.136;2024-02-28T10:13:39;37.72;;;24.23;;
46721;SDS011;32455;43.430;23.136;2024-02-28T10:16:25;43.60;;;27.40;;
46721;SDS011;32455;43.430;23.136;2024-02-28T10:19:10;37.80;;;24.92;;
46721;SDS011;32455;43.430;23.136;2024-02-28T10:21:56;37.35;;;24.05;;
46721;SDS011;32455;43.430;23.136;2024-02-28T10:24:41;39.80;;;24.50;;
46721;SDS011;32455;43.430;23.136;2024-02-28T10:27:27;41.90;;;27.25;;
46721;SDS011;32455;43.430;23.136;2024-02-28T10:30:12;45.38;;;25.38;;
46721;SDS011;32455;43.430;23.136;2024-02-28T10:33:00;40.17;;;25.30;;
46721;SDS011;32455;43.430;23.136;2024-02-28T10:35:46;42.08;;;25.80;;
46721;SDS011;32455;43.430;23.136;2024-02-28T10:38:36;42.55;;;24.10;;
46721;SDS011;32455;43.430;23.136;2024-02-28T10:41:24;42.67;;;25.48;;
46721;SDS011;32455;43.430;23.136;2024-02-28T10:44:11;42.30;;;25.98;;
46721;SDS011;32455;43.430;23.136;2024-02-28T10:46:57;38.13;;;24.15;;
46721;SDS011;32455;43.430;23.136;2024-02-28T10:49:44;34.47;;;24.58;;
46721;SDS011;32455;43.430;23.136;2024-02-28T10:52:29;38.55;;;23.98;;
46721;SDS011;32455;43.430;23.136;2024-02-28T10:55:20;32.05;;;22.08;;
46721;SDS011;32455;43.430;23.136;2024-02-28T10:58:10;34.42;;;24.58;;
46721;SDS011;32455;43.430;23.136;2024-02-28T11:00:56;42.00;;;25.58;;
46721;SDS011;32455;43.430;23.136;2024-02-28T11:03:41;40.22;;;23.75;;
46721;SDS011;32455;43.430;23.136;2024-02-28T11:06:29;46.42;;;25.70;;
46721;SDS011;32455;43.430;23.136;2024-02-28T11:09:18;33.38;;;22.88;;
46721;SDS011;32455;43.430;23.136;2024-02-28T11:12:25;36.13;;;24.52;;
46721;SDS011;32455;43.430;23.136;2024-02-28T11:15:16;34.92;;;23.25;;
46721;SDS011;32455;43.430;23.136;2024-02-28T11:18:08;33.90;;;23.40;;
46721;SDS011;32455;43.430;23.136;2024-02-28T11:20:54;35.80;;;23.50;;
46721;SDS011;32455;43.430;23.136;2024-02-28T11:23:40;38.53;;;24.58;;
46721;SDS011;32455;43.430;23.136;2024-02-28T11:26:26;37.38;;;22.92;;
46721;SDS011;32455;43.430;23.136;2024-02-28T11:29:12;35.83;;;23.52;;
46721;SDS011;32455;43.430;23.136;2024-02-28T11:31:57;38.97;;;23.60;;
46721;SDS011;32455;43.430;23.136;2024-02-28T11:34:42;37.72;;;24.35;;
46721;SDS011;32455;43.430;23.136;2024-02-28T11:37:29;39.13;;;24.33;;
46721;SDS011;32455;43.430;23.136;2024-02-28T11:40:14;37.53;;;23.50;;
46721;SDS011;32455;43.430;23.136;2024-02-28T11:43:00;35.85;;;23.45;;
46721;SDS011;32455;43.430;23.136;2024-02-28T11:45:48;35.88;;;23.60;;
46721;SDS011;32455;43.430;23.136;2024-02-28T11:48:33;33.53;;;23.17;;
46721;SDS011;32455;43.430;23.136;2024-02-28T11:51:19;33.40;;;23.13;;
46721;SDS011;32455;43.430;23.136;2024-02-28T11:54:04;34.03;;;22.33;;
46721;SDS011;32455;43.430;23.136;2024-02-28T11:56:51;33.60;;;24.80;;
46721;SDS011;32455;43.430;23.136;2024-02-28T11:59:36;35.50;;;21.77;;
46721;SDS011;32455;43.430;23.136;2024-02-28T12:02:22;30.35;;;21.17;;
46721;SDS011;32455;43.430;23.136;2024-02-28T12:05:13;35.67;;;24.60;;
46721;SDS011;32455;43.430;23.136;2024-02-28T12:07:58;37.80;;;23.05;;
46721;SDS011;32455;43.430;23.136;2024-02-28T12:10:44;35.00;;;21.67;;
46721;SDS011;32455;43.430;23.136;2024-02-28T12:13:30;34.92;;;22.65;;
46721;SDS011;32455;43.430;23.136;2024-02-28T12:16:15;38.22;;;23.23;;
46721;SDS011;32455;43.430;23.136;2024-02-28T12:18:59;31.52;;;22.38;;
46721;SDS011;32455;43.430;23.136;2024-02-28T12:21:43;33.88;;;22.10;;
46721;SDS011;32455;43.430;23.136;2024-02-28T12:24:29;30.38;;;21.45;;
46721;SDS011;32455;43.430;23.136;2024-02-28T12:27:14;33.30;;;21.77;;
46721;SDS011;32455;43.430;23.136;2024-02-28T12:30:00;33.25;;;21.98;;
46721;SDS011;32455;43.430;23.136;2024-02-28T12:32:45;30.52;;;22.15;;
46721;SDS011;32455;43.430;23.136;2024-02-28T12:35:31;33.25;;;21.83;;
46721;SDS011;32455;43.430;23.136;2024-02-28T12:38:17;33.63;;;20.95;;
46721;SDS011;32455;43.430;23.136;2024-02-28T12:41:02;31.83;;;22.55;;
46721;SDS011;32455;43.430;23.136;2024-02-28T12:43:48;29.60;;;21.10;;
46721;SDS011;32455;43.430;23.136;2024-02-28T12:46:34;29.95;;;20.90;;
46721;SDS011;32455;43.430;23.136;2024-02-28T12:49:20;29.35;;;20.35;;
46721;SDS011;32455;43.430;23.136;2024-02-28T12:52:05;35.03;;;20.98;;
46721;SDS011;32455;43.430;23.136;2024-02-28T12:54:51;33.28;;;20.65;;
46721;SDS011;32455;43.430;23.136;2024-02-28T12:57:36;27.20;;;19.38;;
46721;SDS011;32455;43.430;23.136;2024-02-28T13:00:22;32.65;;;20.83;;
46721;SDS011;32455;43.430;23.136;2024-02-28T13:03:07;29.48;;;20.15;;
46721;SDS011;32455;43.430;23.136;2024-02-28T13:05:53;32.90;;;21.17;;
46721;SDS011;32455;43.430;23.136;2024-02-28T13:08:39;31.30;;;20.75;;
46721;SDS011;32455;43.430;23.136;2024-02-28T13:11:24;29.20;;;18.92;;
46721;SDS011;32455;43.430;23.136;2024-02-28T13:14:09;31.92;;;20.10;;
46721;SDS011;32455;43.430;23.136;2024-02-28T13:16:55;26.85;;;18.98;;
46721;SDS011;32455;43.430;23.136;2024-02-28T13:19:41;29.40;;;19.77;;
46721;SDS011;32455;43.430;23.136;2024-02-28T13:22:26;33.35;;;20.67;;
46721;SDS011;32455;43.430;23.136;2024-02-28T13:25:11;34.67;;;21.33;;
46721;SDS011;32455;43.430;23.136;2024-02-28T13:27:59;32.40;;;19.83;;
46721;SDS011;32455;43.430;23.136;2024-02-28T13:30:44;28.98;;;19.73;;
46721;SDS011;32455;43.430;23.136;2024-02-28T13:33:29;27.50;;;19.00;;
46721;SDS011;32455;43.430;23.136;2024-02-28T13:36:15;29.17;;;19.40;;
46721;SDS011;32455;43.430;23.136;2024-02-28T13:39:01;29.08;;;19.70;;
46721;SDS011;32455;43.430;23.136;2024-02-28T13:41:46;30.02;;;18.48;;
46721;SDS011;32455;43.430;23.136;2024-02-28T13:44:35;33.55;;;19.65;;
46721;SDS011;32455;43.430;23.136;2024-02-28T13:47:25;28.45;;;18.63;;
46721;SDS011;32455;43.430;23.136;2024-02-28T13:50:11;26.23;;;17.67;;
46721;SDS011;32455;43.430;23.136;2024-02-28T13:52:56;27.67;;;19.02;;
46721;SDS011;32455;43.430;23.136;2024-02-28T13:55:42;33.05;;;20.92;;
46721;SDS011;32455;43.430;23.136;2024-02-28T13:58:29;31.35;;;19.65;;
46721;SDS011;32455;43.430;23.136;2024-02-28T14:01:14;30.58;;;18.70;;
46721;SDS011;32455;43.430;23.136;2024-02-28T14:03:59;29.30;;;18.00;;
46721;SDS011;32455;43.430;23.136;2024-02-28T14:06:44;24.58;;;18.90;;
46721;SDS011;32455;43.430;23.136;2024-02-28T14:09:30;28.75;;;20.35;;
46721;SDS011;32455;43.430;23.136;2024-02-28T14:12:16;28.33;;;17.98;;
46721;SDS011;32455;43.430;23.136;2024-02-28T14:15:01;27.05;;;17.90;;
46721;SDS011;32455;43.430;23.136;2024-02-28T14:17:46;28.83;;;17.65;;
46721;SDS011;32455;43.430;23.136;2024-02-28T14:20:32;30.70;;;17.50;;
46721;SDS011;32455;43.430;23.136;2024-02-28T14:23:18;26.27;;;17.02;;
46721;SDS011;32455;43.430;23.136;2024-02-28T14:26:04;29.52;;;18.88;;
46721;SDS011;32455;43.430;23.136;2024-02-28T14:28:49;34.90;;;19.90;;
46721;SDS011;32455;43.430;23.136;2024-02-28T14:31:34;28.98;;;18.23;;
46721;SDS011;32455;43.430;23.136;2024-02-28T14:34:20;25.33;;;18.65;;
46721;SDS011;32455;43.430;23.136;2024-02-28T14:37:05;29.92;;;18.77;;
46721;SDS011;32455;43.430;23.136;2024-02-28T14:39:51;27.63;;;18.23;;
46721;SDS011;32455;43.430;23.136;2024-02-28T14:42:40;30.35;;;18.48;;
46721;SDS011;32455;43.430;23.136;2024-02-28T14:45:26;27.63;;;17.52;;
46721;SDS011;32455;43.430;23.136;2024-02-28T14:48:12;27.10;;;18.10;;
46721;SDS011;32455;43.430;23.136;2024-02-28T14:50:58;30.73;;;19.98;;
46721;SDS011;32455;43.430;23.136;2024-02-28T14:53:43;29.88;;;18.00;;
46721;SDS011;32455;43.430;23.136;2024-02-28T14:56:28;34.72;;;20.30;;
46721;SDS011;32455;43.430;23.136;2024-02-28T14:59:14;85.53;;;40.25;;
46721;SDS011;32455;43.430;23.136;2024-02-28T15:02:00;93.82;;;43.35;;
46721;SDS011;32455;43.430;23.136;2024-02-28T15:04:45;45.35;;;25.33;;
46721;SDS011;32455;43.430;23.136;2024-02-28T15:07:30;31.85;;;21.75;;
46721;SDS011;32455;43.430;23.136;2024-02-28T15:10:15;42.42;;;23.92;;
46721;SDS011;32455;43.430;23.136;2024-02-28T15:13:01;36.72;;;22.88;;
46721;SDS011;32455;43.430;23.136;2024-02-28T15:15:46;29.33;;;18.67;;
46721;SDS011;32455;43.430;23.136;2024-02-28T15:18:32;30.92;;;19.08;;
46721;SDS011;32455;43.430;23.136;2024-02-28T15:21:18;29.08;;;18.83;;
46721;SDS011;32455;43.430;23.136;2024-02-28T15:24:04;34.05;;;19.33;;
46721;SDS011;32455;43.430;23.136;2024-02-28T15:26:49;29.70;;;20.02;;
46721;SDS011;32455;43.430;23.136;2024-02-28T15:29:37;28.83;;;19.65;;
46721;SDS011;32455;43.430;23.136;2024-02-28T15:32:22;28.77;;;19.48;;
46721;SDS011;32455;43.430;23.136;2024-02-28T15:35:08;31.13;;;19.55;;
46721;SDS011;32455;43.430;23.136;2024-02-28T15:37:53;30.80;;;18.77;;
46721;SDS011;32455;43.430;23.136;2024-02-28T15:40:39;29.60;;;19.30;;
46721;SDS011;32455;43.430;23.136;2024-02-28T15:43:24;31.85;;;19.42;;
46721;SDS011;32455;43.430;23.136;2024-02-28T15:46:08;28.40;;;18.85;;
46721;SDS011;32455;43.430;23.136;2024-02-28T15:48:54;29.27;;;18.60;;
46721;SDS011;32455;43.430;23.136;2024-02-28T15:51:39;31.13;;;18.88;;
46721;SDS011;32455;43.430;23.136;2024-02-28T15:54:25;29.95;;;20.13;;
46721;SDS011;32455;43.430;23.136;2024-02-28T15:57:12;28.52;;;19.27;;